CFG2MK EDDK-EDDH
Flight info
| Callsign | CFG2MK |
|---|---|
| Flight time | N/A |
| Altitude | 35000 |
| Route | PODIP9B PODIP Y867 PELUN DCT ANZIV DCT WRB Y867 TOLGI DCT SAS/N0473F340 P605 NOLGO NOLGO3P |
| Aircraft | A339/H-SDE3FGHIRWY/LB1 |
Departure
| Time | 2026-04-20 00:02 |
|---|---|
| Airport | Cologne Bonn Airport (EDDK) |
Arrival
| Time | N/A |
|---|---|
| Airport | Hamburg Helmut Schmidt Airport (EDDH) |
| Time | Latitude | Longitude | Altitude | Speed | Heading |
|---|---|---|---|---|---|
| 2026-04-19 23:13 | 50.88062 | 7.12196 | 238 ft | 0 kts | 216° |
| 2026-04-19 23:49 | 50.88071 | 7.12208 | 239 ft | 2 kts | 200° |
| 2026-04-19 23:49 | 50.88078 | 7.12233 | 239 ft | 2 kts | 168° |
| 2026-04-19 23:49 | 50.88091 | 7.12207 | 239 ft | 2 kts | 297° |
| 2026-04-19 23:49 | 50.88084 | 7.12237 | 239 ft | 0 kts | 116° |
| 2026-04-19 23:51 | 50.88084 | 7.12238 | 239 ft | 0 kts | 116° |
| 2026-04-19 23:53 | 50.88082 | 7.12248 | 238 ft | 1 kts | 114° |
| 2026-04-19 23:53 | 50.88079 | 7.12273 | 238 ft | 3 kts | 99° |
| 2026-04-19 23:53 | 50.88079 | 7.12287 | 238 ft | 1 kts | 91° |
| 2026-04-19 23:54 | 50.88079 | 7.12334 | 238 ft | 5 kts | 95° |
| 2026-04-19 23:54 | 50.88065 | 7.12402 | 238 ft | 9 kts | 110° |
| 2026-04-19 23:54 | 50.88009 | 7.12535 | 238 ft | 20 kts | 125° |
| 2026-04-19 23:54 | 50.87857 | 7.12599 | 238 ft | 27 kts | 165° |
| 2026-04-19 23:55 | 50.87700 | 7.12779 | 238 ft | 30 kts | 155° |
| 2026-04-19 23:55 | 50.87563 | 7.13011 | 238 ft | 28 kts | 122° |
| 2026-04-19 23:55 | 50.87421 | 7.13196 | 238 ft | 26 kts | 135° |
| 2026-04-19 23:55 | 50.87289 | 7.13388 | 238 ft | 26 kts | 138° |
| 2026-04-19 23:56 | 50.87151 | 7.13581 | 244 ft | 26 kts | 139° |
| 2026-04-19 23:56 | 50.87014 | 7.13772 | 249 ft | 26 kts | 139° |
| 2026-04-19 23:56 | 50.86880 | 7.13956 | 259 ft | 24 kts | 138° |
| 2026-04-19 23:56 | 50.86765 | 7.14138 | 261 ft | 25 kts | 138° |
| 2026-04-19 23:57 | 50.86631 | 7.14296 | 267 ft | 24 kts | 141° |
| 2026-04-19 23:57 | 50.86486 | 7.14486 | 273 ft | 30 kts | 137° |
| 2026-04-19 23:57 | 50.86322 | 7.14730 | 282 ft | 35 kts | 137° |
| 2026-04-19 23:57 | 50.86137 | 7.14998 | 297 ft | 36 kts | 137° |
| 2026-04-19 23:58 | 50.85959 | 7.15254 | 302 ft | 33 kts | 137° |
| 2026-04-19 23:58 | 50.85795 | 7.15494 | 308 ft | 31 kts | 137° |
| 2026-04-19 23:58 | 50.85646 | 7.15709 | 311 ft | 28 kts | 137° |
| 2026-04-19 23:58 | 50.85507 | 7.15909 | 315 ft | 25 kts | 137° |
| 2026-04-19 23:59 | 50.85464 | 7.15971 | 315 ft | 0 kts | 137° |
| 2026-04-19 23:59 | 50.85459 | 7.15977 | 315 ft | 4 kts | 137° |
| 2026-04-19 23:59 | 50.85415 | 7.16042 | 315 ft | 13 kts | 136° |
| 2026-04-20 00:00 | 50.85347 | 7.16191 | 314 ft | 20 kts | 112° |
| 2026-04-20 00:00 | 50.85364 | 7.16413 | 314 ft | 21 kts | 50° |
| 2026-04-20 00:00 | 50.85477 | 7.16531 | 315 ft | 19 kts | 357° |
| 2026-04-20 00:00 | 50.85585 | 7.16472 | 315 ft | 5 kts | 334° |
| 2026-04-20 00:01 | 50.85591 | 7.16463 | 317 ft | 3 kts | 322° |
| 2026-04-20 00:01 | 50.85623 | 7.16420 | 315 ft | 9 kts | 320° |
| 2026-04-20 00:01 | 50.86243 | 7.15522 | 300 ft | 138 kts | 317° |
| 2026-04-20 00:02 | 50.87101 | 7.14269 | 419 ft | 184 kts | 317° |
| 2026-04-20 00:02 | 50.88050 | 7.12902 | 1223 ft | 188 kts | 319° |
| 2026-04-20 00:02 | 50.89131 | 7.11650 | 1972 ft | 198 kts | 335° |
| 2026-04-20 00:02 | 50.90498 | 7.11219 | 2761 ft | 206 kts | 7° |
| 2026-04-20 00:03 | 50.91833 | 7.11980 | 3662 ft | 211 kts | 27° |
| 2026-04-20 00:03 | 50.93082 | 7.13267 | 4507 ft | 218 kts | 38° |
| 2026-04-20 00:03 | 50.94016 | 7.15191 | 5411 ft | 226 kts | 62° |
| 2026-04-20 00:03 | 50.94630 | 7.17546 | 6083 ft | 240 kts | 65° |
| 2026-04-20 00:04 | 50.95313 | 7.20073 | 6532 ft | 259 kts | 63° |
| 2026-04-20 00:04 | 50.96100 | 7.22750 | 6978 ft | 274 kts | 62° |
| 2026-04-20 00:04 | 50.96951 | 7.25496 | 7680 ft | 279 kts | 60° |
| 2026-04-20 00:04 | 50.97836 | 7.28269 | 8406 ft | 284 kts | 60° |
| 2026-04-20 00:05 | 50.98746 | 7.31086 | 9151 ft | 289 kts | 60° |
| 2026-04-20 00:05 | 50.99652 | 7.33886 | 9884 ft | 294 kts | 60° |
| 2026-04-20 00:05 | 51.00591 | 7.36806 | 10526 ft | 302 kts | 60° |
| 2026-04-20 00:05 | 51.01535 | 7.39917 | 10734 ft | 325 kts | 67° |
| 2026-04-20 00:06 | 51.01960 | 7.43557 | 10998 ft | 347 kts | 89° |
| 2026-04-20 00:06 | 51.01908 | 7.44850 | 11179 ft | 350 kts | 97° |
| 2026-04-20 00:06 | 51.01606 | 7.47085 | 11576 ft | 353 kts | 106° |
| 2026-04-20 00:06 | 51.00776 | 7.50773 | 12263 ft | 357 kts | 112° |
| 2026-04-20 00:07 | 50.99830 | 7.54444 | 12968 ft | 361 kts | 112° |
| 2026-04-20 00:07 | 50.98911 | 7.58171 | 13640 ft | 365 kts | 110° |
| 2026-04-20 00:07 | 50.98066 | 7.61938 | 14295 ft | 369 kts | 108° |
| 2026-04-20 00:07 | 50.97262 | 7.65823 | 14875 ft | 374 kts | 107° |
| 2026-04-20 00:08 | 50.96480 | 7.69784 | 15484 ft | 378 kts | 107° |
| 2026-04-20 00:08 | 50.95710 | 7.73786 | 16076 ft | 381 kts | 105° |
| 2026-04-20 00:08 | 50.95413 | 7.77975 | 16652 ft | 385 kts | 85° |
| 2026-04-20 00:08 | 50.95997 | 7.82099 | 17249 ft | 386 kts | 65° |
| 2026-04-20 00:09 | 50.97399 | 7.85699 | 17858 ft | 384 kts | 45° |
| 2026-04-20 00:09 | 50.99414 | 7.88331 | 18470 ft | 380 kts | 25° |
| 2026-04-20 00:09 | 51.01823 | 7.90003 | 18992 ft | 379 kts | 15° |
| 2026-04-20 00:09 | 51.04319 | 7.91415 | 19554 ft | 383 kts | 16° |
| 2026-04-20 00:10 | 51.06800 | 7.93027 | 20123 ft | 388 kts | 20° |
| 2026-04-20 00:10 | 51.09243 | 7.94912 | 20694 ft | 393 kts | 24° |
| 2026-04-20 00:10 | 51.11665 | 7.96988 | 21255 ft | 397 kts | 25° |
| 2026-04-20 00:10 | 51.14086 | 7.99166 | 21821 ft | 401 kts | 26° |
| 2026-04-20 00:11 | 51.16519 | 8.01391 | 22389 ft | 405 kts | 26° |
| 2026-04-20 00:11 | 51.18971 | 8.03637 | 22944 ft | 409 kts | 26° |
| 2026-04-20 00:11 | 51.21422 | 8.05871 | 23506 ft | 413 kts | 26° |
| 2026-04-20 00:11 | 51.23926 | 8.08143 | 24015 ft | 416 kts | 26° |
| 2026-04-20 00:12 | 51.26449 | 8.10426 | 24525 ft | 418 kts | 26° |
| 2026-04-20 00:12 | 51.28985 | 8.12719 | 25021 ft | 420 kts | 26° |
| 2026-04-20 00:12 | 51.31537 | 8.15025 | 25510 ft | 422 kts | 26° |
| 2026-04-20 00:12 | 51.34102 | 8.17346 | 25947 ft | 425 kts | 26° |
| 2026-04-20 00:13 | 51.36681 | 8.19679 | 26348 ft | 427 kts | 26° |
| 2026-04-20 00:13 | 51.39272 | 8.22029 | 26771 ft | 429 kts | 26° |
| 2026-04-20 00:13 | 51.41846 | 8.24363 | 27179 ft | 432 kts | 26° |
| 2026-04-20 00:13 | 51.44466 | 8.26743 | 27572 ft | 434 kts | 26° |
| 2026-04-20 00:14 | 51.47101 | 8.29136 | 27976 ft | 436 kts | 26° |
| 2026-04-20 00:14 | 51.49746 | 8.31542 | 28350 ft | 439 kts | 26° |
| 2026-04-20 00:14 | 51.52412 | 8.33970 | 28736 ft | 441 kts | 26° |
| 2026-04-20 00:14 | 51.55034 | 8.36362 | 29111 ft | 443 kts | 26° |
| 2026-04-20 00:15 | 51.57723 | 8.38818 | 29483 ft | 446 kts | 26° |
| 2026-04-20 00:15 | 51.60061 | 8.40953 | 29783 ft | 448 kts | 26° |
| 2026-04-20 00:15 | 51.62833 | 8.43489 | 30151 ft | 451 kts | 26° |
| 2026-04-20 00:15 | 51.65564 | 8.45990 | 30468 ft | 453 kts | 26° |
| 2026-04-20 00:16 | 51.68314 | 8.48515 | 30747 ft | 456 kts | 26° |
| 2026-04-20 00:16 | 51.71080 | 8.51056 | 31036 ft | 459 kts | 27° |
| 2026-04-20 00:16 | 51.73862 | 8.53615 | 31324 ft | 462 kts | 27° |
| 2026-04-20 00:16 | 51.76659 | 8.56193 | 31610 ft | 465 kts | 27° |
| 2026-04-20 00:17 | 51.79476 | 8.58793 | 31896 ft | 467 kts | 27° |
| 2026-04-20 00:17 | 51.82304 | 8.61408 | 32199 ft | 470 kts | 27° |
| 2026-04-20 00:17 | 51.85110 | 8.64007 | 32465 ft | 473 kts | 27° |
| 2026-04-20 00:17 | 51.87970 | 8.66660 | 32694 ft | 475 kts | 27° |
| 2026-04-20 00:18 | 51.90841 | 8.69326 | 32931 ft | 477 kts | 28° |
| 2026-04-20 00:18 | 51.93739 | 8.71979 | 33141 ft | 479 kts | 27° |
| 2026-04-20 00:18 | 51.96654 | 8.74604 | 33331 ft | 481 kts | 27° |
| 2026-04-20 00:18 | 51.99579 | 8.77256 | 33501 ft | 482 kts | 27° |
| 2026-04-20 00:19 | 52.02503 | 8.79944 | 33654 ft | 484 kts | 28° |
| 2026-04-20 00:19 | 52.05426 | 8.82665 | 33830 ft | 484 kts | 28° |
| 2026-04-20 00:19 | 52.08342 | 8.85405 | 34055 ft | 484 kts | 28° |
| 2026-04-20 00:19 | 52.11217 | 8.88116 | 34221 ft | 484 kts | 28° |
| 2026-04-20 00:20 | 52.14134 | 8.90873 | 34416 ft | 484 kts | 28° |
| 2026-04-20 00:20 | 52.17046 | 8.93629 | 34587 ft | 484 kts | 28° |
| 2026-04-20 00:20 | 52.19953 | 8.96385 | 34762 ft | 484 kts | 28° |
| 2026-04-20 00:20 | 52.22866 | 8.99150 | 34928 ft | 484 kts | 28° |
| 2026-04-20 00:21 | 52.25772 | 9.01911 | 35094 ft | 484 kts | 29° |
| 2026-04-20 00:21 | 52.31605 | 9.07465 | 35185 ft | 488 kts | 29° |
| 2026-04-20 00:22 | 52.37454 | 9.13049 | 35181 ft | 492 kts | 29° |
| 2026-04-20 00:22 | 52.43380 | 9.18723 | 35159 ft | 494 kts | 29° |
| 2026-04-20 00:23 | 52.49314 | 9.24435 | 35163 ft | 495 kts | 30° |
| 2026-04-20 00:23 | 52.55245 | 9.30186 | 35157 ft | 495 kts | 30° |
| 2026-04-20 00:24 | 52.61075 | 9.35861 | 35150 ft | 482 kts | 30° |
| 2026-04-20 00:24 | 52.64915 | 9.39624 | 35148 ft | 480 kts | 30° |